Iyo Wind — 3EOP8 — position and weather

sailwx.info

Track history (hours):
 
Tides and Currents Weather Stations Pressure Air Temp Water Temp Dewpoint Dewpoint Depression Visibility Wind Speed Wind Dir Waves Ship Positions

Iyo Wind

Last reported at 2018-Feb-05 05:28 UTC. Time now 2018-Feb-25 11:59 UTC.
Position N 22°00' E 121°14'.
Warning: this ship's position is 20 days out of date.

Length 190 m; draft 6 m.

Type: Cargo ship. MMSI: 372359000.

Date/timePositionNaut miles runAvg speedWind from/ knotsBaromVisibWave heightAir tempDewpointWater temp
2018-Feb-05 05:28N 22°00' E 121°14'613.4
2018-Feb-05 05:00N 22°06' E 121°17'713.0
2018-Feb-05 04:30N 22°11' E 121°21'1413.8
2018-Feb-05 03:28N 22°23' E 121°30'714.5
2018-Feb-05 02:59N 22°28' E 121°35'914.6
2018-Feb-05 02:24N 22°35' E 121°40'814.2
2018-Feb-05 01:52N 22°42' E 121°43'614.3
2018-Feb-05 01:29N 22°47' E 121°46'814.6
2018-Feb-05 00:57N 22°54' E 121°49'1814.6
2018-Feb-04 23:43N 23°11' E 121°55'514.5
2018-Feb-04 23:24N 23°16' E 121°57'4513.4
2018-Feb-04 20:00N 23°58' E 122°13'713.1
2018-Feb-04 19:31N 24°05' E 122°15'712.9
2018-Feb-04 19:00N 24°11' E 122°18'713.2
2018-Feb-04 18:30N 24°16' E 122°22'612.9
2018-Feb-04 18:01N 24°22' E 122°25'612.5
2018-Feb-04 17:31N 24°28' E 122°27'2412.0
2018-Feb-04 15:31N 24°51' E 122°36'611.9
2018-Feb-04 15:00N 24°56' E 122°39'612.2
2018-Feb-04 14:31N 25°02' E 122°40'612.1
2018-Feb-04 14:00N 25°08' E 122°40'612.9
2018-Feb-04 13:30N 25°15' E 122°40'37611.7
2018-Feb-03 05:21N 31°26' E 121°29'3 9.0
2018-Feb-03 05:01N 31°28' E 121°27'5 5.3
2018-Feb-03 04:00N 31°30' E 121°33'4 8.3
2018-Feb-03 03:30N 31°30' E 121°38'9 5.8
2018-Feb-03 01:55N 31°34' E 121°29'0 0.0
2018-Feb-03 01:28N 31°35' E 121°29'0 0.0
2018-Feb-03 00:58N 31°35' E 121°29'0 0.0
2018-Feb-03 00:28N 31°35' E 121°29'0 0.0
2018-Feb-02 23:55N 31°35' E 121°29'0 0.1
2018-Feb-02 23:28N 31°35' E 121°29'0 0.0
2018-Feb-02 22:58N 31°35' E 121°29'0 0.0
2018-Feb-02 22:28N 31°35' E 121°29'0 0.0
2018-Feb-02 21:58N 31°35' E 121°29'0 0.0
2018-Feb-02 21:28N 31°34' E 121°29'0 0.0
2018-Feb-02 20:58N 31°34' E 121°29'0 0.3
2018-Feb-02 20:25N 31°35' E 121°28'0 0.3
2018-Feb-02 19:58N 31°35' E 121°28'0 0.0
2018-Feb-02 18:55N 31°35' E 121°28'0 0.0
2018-Feb-02 18:28N 31°35' E 121°28'0 0.0
2018-Feb-02 17:52N 31°35' E 121°28'0 0.0
2018-Feb-02 17:28N 31°35' E 121°28'0 0.1
2018-Feb-02 16:55N 31°35' E 121°28'0 0.0
2018-Feb-02 16:28N 31°35' E 121°28'0 0.2
2018-Feb-02 15:28N 31°34' E 121°28'0 0.1
2018-Feb-02 14:28N 31°34' E 121°29'0 0.0
2018-Feb-02 13:55N 31°34' E 121°29'0 0.0
2018-Feb-02 13:28N 31°34' E 121°29'0 0.0
2018-Feb-02 12:52N 31°34' E 121°29'0 0.0
2018-Feb-02 12:25N 31°34' E 121°29'0 0.0
2018-Feb-02 11:58N 31°34' E 121°29'0 0.0
2018-Feb-02 11:28N 31°34' E 121°29'0 0.0
2018-Feb-02 10:58N 31°34' E 121°29'0 0.0
2018-Feb-02 10:25N 31°34' E 121°29'0 0.0
2018-Feb-02 09:58N 31°34' E 121°29'0 0.0
2018-Feb-02 09:25N 31°34' E 121°29'0 0.0
2018-Feb-02 08:55N 31°34' E 121°29'0 0.0
2018-Feb-02 08:25N 31°34' E 121°29'0 0.1
2018-Feb-02 07:55N 31°35' E 121°29'1 2.5
2018-Feb-02 07:30N 31°34' E 121°30'1 2.0
2018-Feb-02 07:00N 31°34' E 121°29'2 3.2
2018-Feb-02 06:29N 31°35' E 121°27'0 0.1
2018-Feb-02 05:56N 31°35' E 121°27'0 0.0
2018-Feb-02 05:29N 31°35' E 121°27'0 0.0
2018-Feb-02 04:59N 31°35' E 121°27'0 0.0
2018-Feb-02 04:26N 31°35' E 121°27'0 0.0
2018-Feb-02 03:59N 31°35' E 121°27'0 0.7
2018-Feb-02 03:26N 31°35' E 121°27'0 0.6
2018-Feb-02 02:59N 31°36' E 121°27'0 0.0
2018-Feb-02 02:29N 31°36' E 121°27'0 0.0
2018-Feb-02 01:59N 31°36' E 121°27'0 0.0
2018-Feb-02 01:26N 31°36' E 121°27'0 0.0
2018-Feb-02 00:56N 31°36' E 121°27'0 0.0
2018-Feb-02 00:29N 31°36' E 121°27'0 0.0
2018-Feb-01 23:56N 31°36' E 121°27'0 0.0
2018-Feb-01 23:26N 31°36' E 121°27'0 0.0
2018-Feb-01 22:56N 31°36' E 121°27'0 0.0
2018-Feb-01 21:56N 31°36' E 121°27'0 0.0
2018-Feb-01 21:29N 31°36' E 121°27'0 0.0
2018-Feb-01 19:29N 31°36' E 121°27'0 0.0
2018-Feb-01 18:59N 31°36' E 121°27'0 0.0
2018-Feb-01 18:23N 31°36' E 121°27'0 0.0
2018-Feb-01 17:59N 31°36' E 121°27'0 0.0
2018-Feb-01 17:29N 31°36' E 121°27'0 0.0
2018-Feb-01 16:59N 31°36' E 121°27'0 0.0
2018-Feb-01 16:29N 31°36' E 121°27'0 0.0
2018-Feb-01 15:59N 31°36' E 121°27'0 0.0
2018-Feb-01 15:26N 31°36' E 121°27'0 0.0
2018-Feb-01 14:59N 31°36' E 121°27'0 0.0
2018-Feb-01 13:29N 31°36' E 121°27'0 0.0
2018-Feb-01 12:59N 31°36' E 121°27'0 0.0
2018-Feb-01 12:26N 31°36' E 121°27'0 0.0
2018-Feb-01 11:59N 31°36' E 121°27'0 0.0
2018-Feb-01 10:59N 31°36' E 121°27'0 0.0
2018-Feb-01 10:26N 31°36' E 121°27'0 0.0
2018-Feb-01 09:56N 31°36' E 121°27'0 0.0
2018-Feb-01 09:29N 31°36' E 121°27'0 0.0
2018-Feb-01 08:59N 31°36' E 121°27'0 0.0
2018-Feb-01 08:29N 31°36' E 121°27'0 0.0
2018-Feb-01 07:26N 31°36' E 121°27'0 0.0
2018-Feb-01 06:59N 31°36' E 121°27'0 0.0
2018-Feb-01 06:29N 31°36' E 121°27'0 0.0
2018-Feb-01 05:56N 31°36' E 121°27'0 0.0
2018-Feb-01 05:29N 31°36' E 121°27'0 0.0
2018-Feb-01 04:59N 31°36' E 121°27'0 0.0
2018-Feb-01 04:29N 31°36' E 121°27'0 0.0
2018-Feb-01 03:59N 31°36' E 121°27'0 0.0
2018-Feb-01 02:59N 31°36' E 121°27'0 0.0
2018-Feb-01 02:29N 31°36' E 121°27'  
Track history (hours):
 
Tides and Currents Weather Stations Pressure Air Temp Water Temp Dewpoint Dewpoint Depression Visibility Wind Speed Wind Dir Waves Ship Positions

Iyo Wind

Last reported at 2018-Feb-05 05:28 UTC. Time now 2018-Feb-25 11:59 UTC.
Position N 22°00' E 121°14'.
Warning: this ship's position is 20 days out of date.

Length 190 m; draft 6 m.

Type: Cargo ship. MMSI: 372359000.

Date/timePositionNaut miles runAvg speedWind from/ knotsBaromVisibWave heightAir tempDewpointWater temp
2018-Feb-05 05:28N 22°00' E 121°14'613.4
2018-Feb-05 05:00N 22°06' E 121°17'713.0
2018-Feb-05 04:30N 22°11' E 121°21'1413.8
2018-Feb-05 03:28N 22°23' E 121°30'714.5
2018-Feb-05 02:59N 22°28' E 121°35'914.6
2018-Feb-05 02:24N 22°35' E 121°40'814.2
2018-Feb-05 01:52N 22°42' E 121°43'614.3
2018-Feb-05 01:29N 22°47' E 121°46'814.6
2018-Feb-05 00:57N 22°54' E 121°49'1814.6
2018-Feb-04 23:43N 23°11' E 121°55'514.5
2018-Feb-04 23:24N 23°16' E 121°57'4513.4
2018-Feb-04 20:00N 23°58' E 122°13'713.1
2018-Feb-04 19:31N 24°05' E 122°15'712.9
2018-Feb-04 19:00N 24°11' E 122°18'713.2
2018-Feb-04 18:30N 24°16' E 122°22'612.9
2018-Feb-04 18:01N 24°22' E 122°25'612.5
2018-Feb-04 17:31N 24°28' E 122°27'2412.0
2018-Feb-04 15:31N 24°51' E 122°36'611.9
2018-Feb-04 15:00N 24°56' E 122°39'612.2
2018-Feb-04 14:31N 25°02' E 122°40'612.1
2018-Feb-04 14:00N 25°08' E 122°40'612.9
2018-Feb-04 13:30N 25°15' E 122°40'37611.7
2018-Feb-03 05:21N 31°26' E 121°29'3 9.0
2018-Feb-03 05:01N 31°28' E 121°27'5 5.3
2018-Feb-03 04:00N 31°30' E 121°33'4 8.3
2018-Feb-03 03:30N 31°30' E 121°38'9 5.8
2018-Feb-03 01:55N 31°34' E 121°29'0 0.0
2018-Feb-03 01:28N 31°35' E 121°29'0 0.0
2018-Feb-03 00:58N 31°35' E 121°29'0 0.0
2018-Feb-03 00:28N 31°35' E 121°29'0 0.0
2018-Feb-02 23:55N 31°35' E 121°29'0 0.1
2018-Feb-02 23:28N 31°35' E 121°29'0 0.0
2018-Feb-02 22:58N 31°35' E 121°29'0 0.0
2018-Feb-02 22:28N 31°35' E 121°29'0 0.0
2018-Feb-02 21:58N 31°35' E 121°29'0 0.0
2018-Feb-02 21:28N 31°34' E 121°29'0 0.0
2018-Feb-02 20:58N 31°34' E 121°29'0 0.3
2018-Feb-02 20:25N 31°35' E 121°28'0 0.3
2018-Feb-02 19:58N 31°35' E 121°28'0 0.0
2018-Feb-02 18:55N 31°35' E 121°28'0 0.0
2018-Feb-02 18:28N 31°35' E 121°28'0 0.0
2018-Feb-02 17:52N 31°35' E 121°28'0 0.0
2018-Feb-02 17:28N 31°35' E 121°28'0 0.1
2018-Feb-02 16:55N 31°35' E 121°28'0 0.0
2018-Feb-02 16:28N 31°35' E 121°28'0 0.2
2018-Feb-02 15:28N 31°34' E 121°28'0 0.1
2018-Feb-02 14:28N 31°34' E 121°29'0 0.0
2018-Feb-02 13:55N 31°34' E 121°29'0 0.0
2018-Feb-02 13:28N 31°34' E 121°29'0 0.0
2018-Feb-02 12:52N 31°34' E 121°29'0 0.0
2018-Feb-02 12:25N 31°34' E 121°29'0 0.0
2018-Feb-02 11:58N 31°34' E 121°29'0 0.0
2018-Feb-02 11:28N 31°34' E 121°29'0 0.0
2018-Feb-02 10:58N 31°34' E 121°29'0 0.0
2018-Feb-02 10:25N 31°34' E 121°29'0 0.0
2018-Feb-02 09:58N 31°34' E 121°29'0 0.0
2018-Feb-02 09:25N 31°34' E 121°29'0 0.0
2018-Feb-02 08:55N 31°34' E 121°29'0 0.0
2018-Feb-02 08:25N 31°34' E 121°29'0 0.1
2018-Feb-02 07:55N 31°35' E 121°29'1 2.5
2018-Feb-02 07:30N 31°34' E 121°30'1 2.0
2018-Feb-02 07:00N 31°34' E 121°29'2 3.2
2018-Feb-02 06:29N 31°35' E 121°27'0 0.1
2018-Feb-02 05:56N 31°35' E 121°27'0 0.0
2018-Feb-02 05:29N 31°35' E 121°27'0 0.0
2018-Feb-02 04:59N 31°35' E 121°27'0 0.0
2018-Feb-02 04:26N 31°35' E 121°27'0 0.0
2018-Feb-02 03:59N 31°35' E 121°27'0 0.7
2018-Feb-02 03:26N 31°35' E 121°27'0 0.6
2018-Feb-02 02:59N 31°36' E 121°27'0 0.0
2018-Feb-02 02:29N 31°36' E 121°27'0 0.0
2018-Feb-02 01:59N 31°36' E 121°27'0 0.0
2018-Feb-02 01:26N 31°36' E 121°27'0 0.0
2018-Feb-02 00:56N 31°36' E 121°27'0 0.0
2018-Feb-02 00:29N 31°36' E 121°27'0 0.0
2018-Feb-01 23:56N 31°36' E 121°27'0 0.0
2018-Feb-01 23:26N 31°36' E 121°27'0 0.0
2018-Feb-01 22:56N 31°36' E 121°27'0 0.0
2018-Feb-01 21:56N 31°36' E 121°27'0 0.0
2018-Feb-01 21:29N 31°36' E 121°27'0 0.0
2018-Feb-01 19:29N 31°36' E 121°27'0 0.0
2018-Feb-01 18:59N 31°36' E 121°27'0 0.0
2018-Feb-01 18:23N 31°36' E 121°27'0 0.0
2018-Feb-01 17:59N 31°36' E 121°27'0 0.0
2018-Feb-01 17:29N 31°36' E 121°27'0 0.0
2018-Feb-01 16:59N 31°36' E 121°27'0 0.0
2018-Feb-01 16:29N 31°36' E 121°27'0 0.0
2018-Feb-01 15:59N 31°36' E 121°27'0 0.0
2018-Feb-01 15:26N 31°36' E 121°27'0 0.0
2018-Feb-01 14:59N 31°36' E 121°27'0 0.0
2018-Feb-01 13:29N 31°36' E 121°27'0 0.0
2018-Feb-01 12:59N 31°36' E 121°27'0 0.0
2018-Feb-01 12:26N 31°36' E 121°27'0 0.0
2018-Feb-01 11:59N 31°36' E 121°27'0 0.0
2018-Feb-01 10:59N 31°36' E 121°27'0 0.0
2018-Feb-01 10:26N 31°36' E 121°27'0 0.0
2018-Feb-01 09:56N 31°36' E 121°27'0 0.0
2018-Feb-01 09:29N 31°36' E 121°27'0 0.0
2018-Feb-01 08:59N 31°36' E 121°27'0 0.0
2018-Feb-01 08:29N 31°36' E 121°27'0 0.0
2018-Feb-01 07:26N 31°36' E 121°27'0 0.0
2018-Feb-01 06:59N 31°36' E 121°27'0 0.0
2018-Feb-01 06:29N 31°36' E 121°27'0 0.0
2018-Feb-01 05:56N 31°36' E 121°27'0 0.0
2018-Feb-01 05:29N 31°36' E 121°27'0 0.0
2018-Feb-01 04:59N 31°36' E 121°27'0 0.0
2018-Feb-01 04:29N 31°36' E 121°27'0 0.0
2018-Feb-01 03:59N 31°36' E 121°27'0 0.0
2018-Feb-01 02:59N 31°36' E 121°27'0 0.0
2018-Feb-01 02:29N 31°36' E 121°27'  

Dump ship's entire track history